sensor_id;sensor_type;location;lat;lon;timestamp;P1;durP1;ratioP1;P2;durP2;ratioP2
68792;SDS011;55778;54.346;10.210;2023-05-07T00:01:56;17.65;;;8.15;;
68792;SDS011;55778;54.346;10.210;2023-05-07T00:04:22;18.00;;;8.20;;
68792;SDS011;55778;54.346;10.210;2023-05-07T00:06:47;17.77;;;7.70;;
68792;SDS011;55778;54.346;10.210;2023-05-07T00:09:12;17.88;;;7.75;;
68792;SDS011;55778;54.346;10.210;2023-05-07T00:11:38;18.48;;;7.90;;
68792;SDS011;55778;54.346;10.210;2023-05-07T00:14:03;21.67;;;7.95;;
68792;SDS011;55778;54.346;10.210;2023-05-07T00:16:29;20.95;;;8.55;;
68792;SDS011;55778;54.346;10.210;2023-05-07T00:18:54;17.95;;;8.32;;
68792;SDS011;55778;54.346;10.210;2023-05-07T00:21:20;18.25;;;8.85;;
68792;SDS011;55778;54.346;10.210;2023-05-07T00:23:46;17.50;;;8.10;;
68792;SDS011;55778;54.346;10.210;2023-05-07T00:26:12;17.55;;;8.30;;
68792;SDS011;55778;54.346;10.210;2023-05-07T00:28:37;18.20;;;8.63;;
68792;SDS011;55778;54.346;10.210;2023-05-07T00:31:02;17.98;;;8.73;;
68792;SDS011;55778;54.346;10.210;2023-05-07T00:33:28;17.50;;;8.65;;
68792;SDS011;55778;54.346;10.210;2023-05-07T00:35:53;19.38;;;8.45;;
68792;SDS011;55778;54.346;10.210;2023-05-07T00:38:21;18.05;;;8.85;;
68792;SDS011;55778;54.346;10.210;2023-05-07T00:40:47;16.08;;;8.18;;
68792;SDS011;55778;54.346;10.210;2023-05-07T00:43:12;18.40;;;8.80;;
68792;SDS011;55778;54.346;10.210;2023-05-07T00:45:38;20.63;;;9.25;;
68792;SDS011;55778;54.346;10.210;2023-05-07T00:48:03;20.85;;;9.40;;
68792;SDS011;55778;54.346;10.210;2023-05-07T00:50:29;20.75;;;8.90;;
68792;SDS011;55778;54.346;10.210;2023-05-07T00:52:55;18.83;;;8.95;;
68792;SDS011;55778;54.346;10.210;2023-05-07T00:55:22;19.83;;;9.82;;
68792;SDS011;55778;54.346;10.210;2023-05-07T00:57:48;19.80;;;9.38;;
68792;SDS011;55778;54.346;10.210;2023-05-07T01:00:15;19.98;;;9.23;;
68792;SDS011;55778;54.346;10.210;2023-05-07T01:02:40;18.45;;;8.80;;
68792;SDS011;55778;54.346;10.210;2023-05-07T01:05:07;20.05;;;8.68;;
68792;SDS011;55778;54.346;10.210;2023-05-07T01:07:36;19.33;;;9.75;;
68792;SDS011;55778;54.346;10.210;2023-05-07T01:10:04;18.45;;;8.73;;
68792;SDS011;55778;54.346;10.210;2023-05-07T01:12:30;18.45;;;9.07;;
68792;SDS011;55778;54.346;10.210;2023-05-07T01:14:56;17.02;;;8.75;;
68792;SDS011;55778;54.346;10.210;2023-05-07T01:17:22;17.55;;;9.32;;
68792;SDS011;55778;54.346;10.210;2023-05-07T01:19:48;18.95;;;9.35;;
68792;SDS011;55778;54.346;10.210;2023-05-07T01:22:14;19.45;;;9.60;;
68792;SDS011;55778;54.346;10.210;2023-05-07T01:24:41;20.42;;;9.77;;
68792;SDS011;55778;54.346;10.210;2023-05-07T01:27:07;16.70;;;9.73;;
68792;SDS011;55778;54.346;10.210;2023-05-07T01:29:33;17.48;;;9.52;;
68792;SDS011;55778;54.346;10.210;2023-05-07T01:31:58;19.33;;;8.93;;
68792;SDS011;55778;54.346;10.210;2023-05-07T01:34:25;17.45;;;9.25;;
68792;SDS011;55778;54.346;10.210;2023-05-07T01:36:54;18.70;;;9.07;;
68792;SDS011;55778;54.346;10.210;2023-05-07T01:39:24;15.80;;;9.20;;
68792;SDS011;55778;54.346;10.210;2023-05-07T01:41:51;16.30;;;9.47;;
68792;SDS011;55778;54.346;10.210;2023-05-07T01:44:19;18.08;;;9.80;;
68792;SDS011;55778;54.346;10.210;2023-05-07T01:46:45;16.20;;;9.13;;
68792;SDS011;55778;54.346;10.210;2023-05-07T01:49:12;18.85;;;9.88;;
68792;SDS011;55778;54.346;10.210;2023-05-07T01:51:37;18.67;;;9.98;;
68792;SDS011;55778;54.346;10.210;2023-05-07T01:54:04;16.58;;;9.30;;
68792;SDS011;55778;54.346;10.210;2023-05-07T01:56:30;15.63;;;9.63;;
68792;SDS011;55778;54.346;10.210;2023-05-07T01:58:56;16.35;;;9.23;;
68792;SDS011;55778;54.346;10.210;2023-05-07T02:01:21;15.68;;;9.13;;
68792;SDS011;55778;54.346;10.210;2023-05-07T02:03:47;15.75;;;9.15;;
68792;SDS011;55778;54.346;10.210;2023-05-07T02:06:12;17.42;;;9.38;;
68792;SDS011;55778;54.346;10.210;2023-05-07T02:08:37;16.08;;;9.10;;
68792;SDS011;55778;54.346;10.210;2023-05-07T02:11:03;17.27;;;9.57;;
68792;SDS011;55778;54.346;10.210;2023-05-07T02:13:29;18.48;;;9.27;;
68792;SDS011;55778;54.346;10.210;2023-05-07T02:15:55;16.88;;;9.68;;
68792;SDS011;55778;54.346;10.210;2023-05-07T02:18:20;17.75;;;9.18;;
68792;SDS011;55778;54.346;10.210;2023-05-07T02:20:46;16.45;;;9.20;;
68792;SDS011;55778;54.346;10.210;2023-05-07T02:23:11;16.08;;;8.27;;
68792;SDS011;55778;54.346;10.210;2023-05-07T02:25:36;13.93;;;8.30;;
68792;SDS011;55778;54.346;10.210;2023-05-07T02:28:02;14.02;;;8.45;;
68792;SDS011;55778;54.346;10.210;2023-05-07T02:30:28;14.90;;;8.30;;
68792;SDS011;55778;54.346;10.210;2023-05-07T02:32:53;13.55;;;8.38;;
68792;SDS011;55778;54.346;10.210;2023-05-07T02:35:19;14.45;;;8.30;;
68792;SDS011;55778;54.346;10.210;2023-05-07T02:37:44;15.63;;;8.70;;
68792;SDS011;55778;54.346;10.210;2023-05-07T02:40:10;14.73;;;8.82;;
68792;SDS011;55778;54.346;10.210;2023-05-07T02:42:36;15.90;;;8.68;;
68792;SDS011;55778;54.346;10.210;2023-05-07T02:45:01;14.57;;;8.57;;
68792;SDS011;55778;54.346;10.210;2023-05-07T02:47:26;14.20;;;8.55;;
68792;SDS011;55778;54.346;10.210;2023-05-07T02:49:53;17.17;;;8.55;;
68792;SDS011;55778;54.346;10.210;2023-05-07T02:52:19;13.90;;;8.25;;
68792;SDS011;55778;54.346;10.210;2023-05-07T02:54:44;13.50;;;8.07;;
68792;SDS011;55778;54.346;10.210;2023-05-07T02:57:10;14.48;;;8.20;;
68792;SDS011;55778;54.346;10.210;2023-05-07T02:59:35;14.05;;;8.15;;
68792;SDS011;55778;54.346;10.210;2023-05-07T03:02:00;13.82;;;7.90;;
68792;SDS011;55778;54.346;10.210;2023-05-07T03:04:26;14.02;;;8.82;;
68792;SDS011;55778;54.346;10.210;2023-05-07T03:06:51;13.18;;;8.20;;
68792;SDS011;55778;54.346;10.210;2023-05-07T03:09:16;13.20;;;7.68;;
68792;SDS011;55778;54.346;10.210;2023-05-07T03:11:42;12.93;;;7.22;;
68792;SDS011;55778;54.346;10.210;2023-05-07T03:14:07;14.65;;;8.23;;
68792;SDS011;55778;54.346;10.210;2023-05-07T03:16:33;14.18;;;7.82;;
68792;SDS011;55778;54.346;10.210;2023-05-07T03:18:58;12.27;;;7.63;;
68792;SDS011;55778;54.346;10.210;2023-05-07T03:21:24;13.68;;;7.97;;
68792;SDS011;55778;54.346;10.210;2023-05-07T03:23:51;13.80;;;8.40;;
68792;SDS011;55778;54.346;10.210;2023-05-07T03:26:16;14.60;;;8.05;;
68792;SDS011;55778;54.346;10.210;2023-05-07T03:28:42;14.43;;;8.00;;
68792;SDS011;55778;54.346;10.210;2023-05-07T03:31:07;12.43;;;7.43;;
68792;SDS011;55778;54.346;10.210;2023-05-07T03:33:33;15.98;;;9.05;;
68792;SDS011;55778;54.346;10.210;2023-05-07T03:36:00;12.70;;;7.78;;
68792;SDS011;55778;54.346;10.210;2023-05-07T03:38:26;13.98;;;7.18;;
68792;SDS011;55778;54.346;10.210;2023-05-07T03:40:51;12.80;;;7.63;;
68792;SDS011;55778;54.346;10.210;2023-05-07T03:43:16;12.32;;;7.72;;
68792;SDS011;55778;54.346;10.210;2023-05-07T03:45:42;13.73;;;7.80;;
68792;SDS011;55778;54.346;10.210;2023-05-07T03:48:07;11.32;;;7.43;;
68792;SDS011;55778;54.346;10.210;2023-05-07T03:50:33;12.45;;;7.45;;
68792;SDS011;55778;54.346;10.210;2023-05-07T03:52:58;12.80;;;7.65;;
68792;SDS011;55778;54.346;10.210;2023-05-07T03:55:23;12.65;;;7.90;;
68792;SDS011;55778;54.346;10.210;2023-05-07T03:57:49;11.10;;;7.13;;
68792;SDS011;55778;54.346;10.210;2023-05-07T04:00:15;12.32;;;7.20;;
68792;SDS011;55778;54.346;10.210;2023-05-07T04:02:41;13.27;;;8.65;;
68792;SDS011;55778;54.346;10.210;2023-05-07T04:05:07;10.77;;;6.75;;
68792;SDS011;55778;54.346;10.210;2023-05-07T04:07:32;10.73;;;6.75;;
68792;SDS011;55778;54.346;10.210;2023-05-07T04:09:58;10.93;;;6.78;;
68792;SDS011;55778;54.346;10.210;2023-05-07T04:12:23;11.05;;;7.40;;
68792;SDS011;55778;54.346;10.210;2023-05-07T04:14:49;12.75;;;7.30;;
68792;SDS011;55778;54.346;10.210;2023-05-07T04:17:14;11.63;;;7.57;;
68792;SDS011;55778;54.346;10.210;2023-05-07T04:19:40;13.20;;;8.00;;
68792;SDS011;55778;54.346;10.210;2023-05-07T04:22:10;13.40;;;7.53;;
68792;SDS011;55778;54.346;10.210;2023-05-07T04:24:35;12.25;;;7.78;;
68792;SDS011;55778;54.346;10.210;2023-05-07T04:27:01;13.10;;;8.15;;
68792;SDS011;55778;54.346;10.210;2023-05-07T04:29:26;13.70;;;7.90;;
68792;SDS011;55778;54.346;10.210;2023-05-07T04:31:52;13.85;;;7.60;;
68792;SDS011;55778;54.346;10.210;2023-05-07T04:34:17;13.35;;;8.02;;
68792;SDS011;55778;54.346;10.210;2023-05-07T04:36:43;13.15;;;7.70;;
68792;SDS011;55778;54.346;10.210;2023-05-07T04:39:08;13.30;;;7.63;;
68792;SDS011;55778;54.346;10.210;2023-05-07T04:41:35;12.23;;;7.80;;
68792;SDS011;55778;54.346;10.210;2023-05-07T04:44:01;12.50;;;7.45;;
68792;SDS011;55778;54.346;10.210;2023-05-07T04:46:29;11.35;;;7.07;;
68792;SDS011;55778;54.346;10.210;2023-05-07T04:48:54;11.02;;;7.40;;
68792;SDS011;55778;54.346;10.210;2023-05-07T04:51:20;13.57;;;7.60;;
68792;SDS011;55778;54.346;10.210;2023-05-07T04:53:45;12.00;;;6.90;;
68792;SDS011;55778;54.346;10.210;2023-05-07T04:56:11;11.68;;;6.88;;
68792;SDS011;55778;54.346;10.210;2023-05-07T04:58:36;11.90;;;6.90;;
68792;SDS011;55778;54.346;10.210;2023-05-07T05:01:01;13.30;;;7.13;;
68792;SDS011;55778;54.346;10.210;2023-05-07T05:03:27;12.07;;;7.63;;
68792;SDS011;55778;54.346;10.210;2023-05-07T05:05:52;11.20;;;7.03;;
68792;SDS011;55778;54.346;10.210;2023-05-07T05:08:18;12.32;;;7.22;;
68792;SDS011;55778;54.346;10.210;2023-05-07T05:10:43;11.23;;;7.05;;
68792;SDS011;55778;54.346;10.210;2023-05-07T05:13:09;11.02;;;6.82;;
68792;SDS011;55778;54.346;10.210;2023-05-07T05:15:35;11.73;;;6.70;;
68792;SDS011;55778;54.346;10.210;2023-05-07T05:18:00;11.75;;;6.60;;
68792;SDS011;55778;54.346;10.210;2023-05-07T05:20:26;10.63;;;6.82;;
68792;SDS011;55778;54.346;10.210;2023-05-07T05:22:51;14.35;;;6.82;;
68792;SDS011;55778;54.346;10.210;2023-05-07T05:25:16;11.48;;;7.13;;
68792;SDS011;55778;54.346;10.210;2023-05-07T05:27:42;12.20;;;6.80;;
68792;SDS011;55778;54.346;10.210;2023-05-07T05:30:07;10.85;;;6.65;;
68792;SDS011;55778;54.346;10.210;2023-05-07T05:32:33;12.70;;;7.60;;
68792;SDS011;55778;54.346;10.210;2023-05-07T05:34:59;12.25;;;7.47;;
68792;SDS011;55778;54.346;10.210;2023-05-07T05:37:24;12.20;;;7.25;;
68792;SDS011;55778;54.346;10.210;2023-05-07T05:39:50;17.55;;;8.10;;
68792;SDS011;55778;54.346;10.210;2023-05-07T05:42:15;13.48;;;7.28;;
68792;SDS011;55778;54.346;10.210;2023-05-07T05:44:41;14.15;;;7.20;;
68792;SDS011;55778;54.346;10.210;2023-05-07T05:47:06;13.75;;;7.97;;
68792;SDS011;55778;54.346;10.210;2023-05-07T05:49:32;14.25;;;8.43;;
68792;SDS011;55778;54.346;10.210;2023-05-07T05:51:57;12.93;;;7.15;;
68792;SDS011;55778;54.346;10.210;2023-05-07T05:54:23;10.70;;;6.47;;
68792;SDS011;55778;54.346;10.210;2023-05-07T05:56:48;12.18;;;7.07;;
68792;SDS011;55778;54.346;10.210;2023-05-07T05:59:14;14.05;;;6.90;;
68792;SDS011;55778;54.346;10.210;2023-05-07T06:01:39;13.02;;;6.95;;
68792;SDS011;55778;54.346;10.210;2023-05-07T06:04:05;11.63;;;7.03;;
68792;SDS011;55778;54.346;10.210;2023-05-07T06:06:30;11.45;;;6.90;;
68792;SDS011;55778;54.346;10.210;2023-05-07T06:08:56;10.93;;;6.55;;
68792;SDS011;55778;54.346;10.210;2023-05-07T06:11:22;10.57;;;6.38;;
68792;SDS011;55778;54.346;10.210;2023-05-07T06:13:47;11.73;;;6.63;;
68792;SDS011;55778;54.346;10.210;2023-05-07T06:16:13;11.48;;;6.80;;
68792;SDS011;55778;54.346;10.210;2023-05-07T06:18:40;14.32;;;7.00;;
68792;SDS011;55778;54.346;10.210;2023-05-07T06:21:05;10.45;;;6.75;;
68792;SDS011;55778;54.346;10.210;2023-05-07T06:23:31;12.30;;;7.00;;
68792;SDS011;55778;54.346;10.210;2023-05-07T06:25:56;12.45;;;6.75;;
68792;SDS011;55778;54.346;10.210;2023-05-07T06:28:21;10.65;;;7.07;;
68792;SDS011;55778;54.346;10.210;2023-05-07T06:30:47;10.15;;;6.72;;
68792;SDS011;55778;54.346;10.210;2023-05-07T06:33:14;11.57;;;6.85;;
68792;SDS011;55778;54.346;10.210;2023-05-07T06:35:40;11.73;;;6.85;;
68792;SDS011;55778;54.346;10.210;2023-05-07T06:38:05;9.88;;;6.47;;
68792;SDS011;55778;54.346;10.210;2023-05-07T06:40:31;10.85;;;6.60;;
68792;SDS011;55778;54.346;10.210;2023-05-07T06:42:56;11.63;;;6.40;;
68792;SDS011;55778;54.346;10.210;2023-05-07T06:45:21;9.50;;;6.13;;
68792;SDS011;55778;54.346;10.210;2023-05-07T06:47:47;11.25;;;6.28;;
68792;SDS011;55778;54.346;10.210;2023-05-07T06:50:12;11.15;;;6.57;;
68792;SDS011;55778;54.346;10.210;2023-05-07T06:52:38;10.13;;;6.35;;
68792;SDS011;55778;54.346;10.210;2023-05-07T06:55:03;9.80;;;6.70;;
68792;SDS011;55778;54.346;10.210;2023-05-07T06:57:29;11.57;;;6.00;;
68792;SDS011;55778;54.346;10.210;2023-05-07T06:59:55;13.05;;;6.20;;
68792;SDS011;55778;54.346;10.210;2023-05-07T07:02:21;10.02;;;6.35;;
68792;SDS011;55778;54.346;10.210;2023-05-07T07:04:46;9.27;;;5.55;;
68792;SDS011;55778;54.346;10.210;2023-05-07T07:07:14;9.77;;;5.85;;
68792;SDS011;55778;54.346;10.210;2023-05-07T07:09:40;7.95;;;5.68;;
68792;SDS011;55778;54.346;10.210;2023-05-07T07:12:05;11.00;;;6.28;;
68792;SDS011;55778;54.346;10.210;2023-05-07T07:14:32;9.40;;;5.68;;
68792;SDS011;55778;54.346;10.210;2023-05-07T07:16:57;10.18;;;6.32;;
68792;SDS011;55778;54.346;10.210;2023-05-07T07:19:23;10.00;;;5.93;;
68792;SDS011;55778;54.346;10.210;2023-05-07T07:21:49;8.60;;;5.30;;
68792;SDS011;55778;54.346;10.210;2023-05-07T07:24:14;8.60;;;5.40;;
68792;SDS011;55778;54.346;10.210;2023-05-07T07:26:46;10.07;;;5.20;;
68792;SDS011;55778;54.346;10.210;2023-05-07T07:29:11;9.45;;;5.55;;
68792;SDS011;55778;54.346;10.210;2023-05-07T07:31:37;7.40;;;4.75;;
68792;SDS011;55778;54.346;10.210;2023-05-07T07:34:02;7.68;;;4.72;;
68792;SDS011;55778;54.346;10.210;2023-05-07T07:36:28;6.68;;;4.60;;
68792;SDS011;55778;54.346;10.210;2023-05-07T07:38:53;7.40;;;4.45;;
68792;SDS011;55778;54.346;10.210;2023-05-07T07:41:18;7.35;;;5.03;;
68792;SDS011;55778;54.346;10.210;2023-05-07T07:43:44;8.60;;;5.43;;
68792;SDS011;55778;54.346;10.210;2023-05-07T07:46:11;7.20;;;5.15;;
68792;SDS011;55778;54.346;10.210;2023-05-07T07:48:37;8.35;;;5.63;;
68792;SDS011;55778;54.346;10.210;2023-05-07T07:51:02;6.72;;;5.07;;
68792;SDS011;55778;54.346;10.210;2023-05-07T07:53:28;6.65;;;4.75;;
68792;SDS011;55778;54.346;10.210;2023-05-07T07:55:53;8.10;;;4.90;;
68792;SDS011;55778;54.346;10.210;2023-05-07T07:58:18;8.25;;;4.80;;
68792;SDS011;55778;54.346;10.210;2023-05-07T08:00:44;7.80;;;5.10;;
68792;SDS011;55778;54.346;10.210;2023-05-07T08:03:10;7.65;;;4.70;;
68792;SDS011;55778;54.346;10.210;2023-05-07T08:05:35;8.80;;;5.63;;
68792;SDS011;55778;54.346;10.210;2023-05-07T08:08:01;8.75;;;5.82;;
68792;SDS011;55778;54.346;10.210;2023-05-07T08:10:27;8.82;;;4.97;;
68792;SDS011;55778;54.346;10.210;2023-05-07T08:12:52;8.05;;;5.32;;
68792;SDS011;55778;54.346;10.210;2023-05-07T08:15:18;7.25;;;5.10;;
68792;SDS011;55778;54.346;10.210;2023-05-07T08:17:43;7.03;;;4.95;;
68792;SDS011;55778;54.346;10.210;2023-05-07T08:20:09;9.88;;;4.93;;
68792;SDS011;55778;54.346;10.210;2023-05-07T08:22:35;6.80;;;4.68;;
68792;SDS011;55778;54.346;10.210;2023-05-07T08:25:01;6.85;;;5.22;;
68792;SDS011;55778;54.346;10.210;2023-05-07T08:27:26;10.15;;;4.95;;
68792;SDS011;55778;54.346;10.210;2023-05-07T08:29:52;12.73;;;6.55;;
68792;SDS011;55778;54.346;10.210;2023-05-07T08:32:18;8.80;;;4.93;;
68792;SDS011;55778;54.346;10.210;2023-05-07T08:34:44;7.57;;;4.82;;
68792;SDS011;55778;54.346;10.210;2023-05-07T08:37:09;7.68;;;4.80;;
68792;SDS011;55778;54.346;10.210;2023-05-07T08:39:34;6.85;;;4.63;;
68792;SDS011;55778;54.346;10.210;2023-05-07T08:42:00;6.78;;;4.80;;
68792;SDS011;55778;54.346;10.210;2023-05-07T08:46:57;6.57;;;4.65;;
68792;SDS011;55778;54.346;10.210;2023-05-07T08:49:25;6.80;;;4.90;;
68792;SDS011;55778;54.346;10.210;2023-05-07T08:51:50;7.00;;;4.90;;
68792;SDS011;55778;54.346;10.210;2023-05-07T08:54:16;7.10;;;4.78;;
68792;SDS011;55778;54.346;10.210;2023-05-07T08:56:42;6.35;;;4.53;;
68792;SDS011;55778;54.346;10.210;2023-05-07T08:59:08;7.55;;;4.93;;
68792;SDS011;55778;54.346;10.210;2023-05-07T09:01:33;7.10;;;4.93;;
68792;SDS011;55778;54.346;10.210;2023-05-07T09:04:00;6.40;;;4.57;;
68792;SDS011;55778;54.346;10.210;2023-05-07T09:06:26;7.78;;;4.68;;
68792;SDS011;55778;54.346;10.210;2023-05-07T09:08:52;5.13;;;4.18;;
68792;SDS011;55778;54.346;10.210;2023-05-07T09:11:19;6.60;;;4.55;;
68792;SDS011;55778;54.346;10.210;2023-05-07T09:13:46;6.25;;;4.30;;
68792;SDS011;55778;54.346;10.210;2023-05-07T09:16:12;6.13;;;4.45;;
68792;SDS011;55778;54.346;10.210;2023-05-07T09:18:41;6.30;;;4.45;;
68792;SDS011;55778;54.346;10.210;2023-05-07T09:21:10;6.60;;;4.60;;
68792;SDS011;55778;54.346;10.210;2023-05-07T09:23:37;6.45;;;4.80;;
68792;SDS011;55778;54.346;10.210;2023-05-07T09:26:02;6.38;;;4.40;;
68792;SDS011;55778;54.346;10.210;2023-05-07T09:28:29;6.43;;;4.38;;
68792;SDS011;55778;54.346;10.210;2023-05-07T09:30:55;7.05;;;4.80;;
68792;SDS011;55778;54.346;10.210;2023-05-07T09:33:20;5.85;;;4.88;;
68792;SDS011;55778;54.346;10.210;2023-05-07T09:35:46;6.75;;;4.72;;
68792;SDS011;55778;54.346;10.210;2023-05-07T09:40:42;5.72;;;4.32;;
68792;SDS011;55778;54.346;10.210;2023-05-07T09:43:11;8.88;;;6.18;;
68792;SDS011;55778;54.346;10.210;2023-05-07T09:45:38;6.93;;;4.63;;
68792;SDS011;55778;54.346;10.210;2023-05-07T09:48:05;6.00;;;4.30;;
68792;SDS011;55778;54.346;10.210;2023-05-07T09:50:36;6.63;;;4.10;;
68792;SDS011;55778;54.346;10.210;2023-05-07T09:53:08;5.43;;;4.32;;
68792;SDS011;55778;54.346;10.210;2023-05-07T09:55:35;5.88;;;4.10;;
68792;SDS011;55778;54.346;10.210;2023-05-07T09:58:01;5.78;;;4.18;;
68792;SDS011;55778;54.346;10.210;2023-05-07T10:00:29;6.18;;;4.15;;
68792;SDS011;55778;54.346;10.210;2023-05-07T10:02:56;5.50;;;4.10;;
68792;SDS011;55778;54.346;10.210;2023-05-07T10:05:23;5.63;;;3.80;;
68792;SDS011;55778;54.346;10.210;2023-05-07T10:07:50;4.95;;;4.07;;
68792;SDS011;55778;54.346;10.210;2023-05-07T10:10:16;5.85;;;4.32;;
68792;SDS011;55778;54.346;10.210;2023-05-07T10:12:42;5.55;;;3.88;;
68792;SDS011;55778;54.346;10.210;2023-05-07T10:15:08;6.30;;;4.07;;
68792;SDS011;55778;54.346;10.210;2023-05-07T10:17:35;5.22;;;3.72;;
68792;SDS011;55778;54.346;10.210;2023-05-07T10:20:01;4.65;;;3.75;;
68792;SDS011;55778;54.346;10.210;2023-05-07T10:22:27;4.32;;;3.50;;
68792;SDS011;55778;54.346;10.210;2023-05-07T10:24:57;4.95;;;3.78;;
68792;SDS011;55778;54.346;10.210;2023-05-07T10:27:27;5.55;;;3.90;;
68792;SDS011;55778;54.346;10.210;2023-05-07T10:30:05;5.32;;;3.65;;
68792;SDS011;55778;54.346;10.210;2023-05-07T10:32:44;7.33;;;3.70;;
68792;SDS011;55778;54.346;10.210;2023-05-07T10:37:41;4.80;;;3.53;;
68792;SDS011;55778;54.346;10.210;2023-05-07T10:40:07;4.70;;;3.13;;
68792;SDS011;55778;54.346;10.210;2023-05-07T10:42:34;4.50;;;3.47;;
68792;SDS011;55778;54.346;10.210;2023-05-07T10:45:21;4.78;;;3.42;;
68792;SDS011;55778;54.346;10.210;2023-05-07T10:50:35;8.32;;;3.60;;
68792;SDS011;55778;54.346;10.210;2023-05-07T10:53:20;6.60;;;4.43;;
68792;SDS011;55778;54.346;10.210;2023-05-07T10:55:47;5.32;;;3.60;;
68792;SDS011;55778;54.346;10.210;2023-05-07T10:58:23;4.65;;;3.28;;
68792;SDS011;55778;54.346;10.210;2023-05-07T11:01:02;5.63;;;3.22;;
68792;SDS011;55778;54.346;10.210;2023-05-07T11:03:28;4.15;;;2.88;;
68792;SDS011;55778;54.346;10.210;2023-05-07T11:11:17;5.50;;;2.77;;
68792;SDS011;55778;54.346;10.210;2023-05-07T11:13:45;3.63;;;2.63;;
68792;SDS011;55778;54.346;10.210;2023-05-07T11:16:18;4.80;;;2.70;;
68792;SDS011;55778;54.346;10.210;2023-05-07T11:18:46;3.13;;;2.30;;
68792;SDS011;55778;54.346;10.210;2023-05-07T11:21:31;3.17;;;2.28;;
68792;SDS011;55778;54.346;10.210;2023-05-07T11:24:03;4.55;;;2.40;;
68792;SDS011;55778;54.346;10.210;2023-05-07T11:26:30;3.70;;;2.20;;
68792;SDS011;55778;54.346;10.210;2023-05-07T11:29:09;2.88;;;2.03;;
68792;SDS011;55778;54.346;10.210;2023-05-07T11:31:54;3.33;;;2.15;;
68792;SDS011;55778;54.346;10.210;2023-05-07T11:34:23;2.65;;;1.90;;
68792;SDS011;55778;54.346;10.210;2023-05-07T11:36:50;4.80;;;2.30;;
68792;SDS011;55778;54.346;10.210;2023-05-07T11:39:31;3.55;;;2.08;;
68792;SDS011;55778;54.346;10.210;2023-05-07T11:42:01;2.80;;;1.88;;
68792;SDS011;55778;54.346;10.210;2023-05-07T11:44:40;2.75;;;2.42;;
68792;SDS011;55778;54.346;10.210;2023-05-07T11:47:07;4.88;;;2.40;;
68792;SDS011;55778;54.346;10.210;2023-05-07T11:49:32;2.97;;;2.10;;
68792;SDS011;55778;54.346;10.210;2023-05-07T11:51:59;2.97;;;2.03;;
68792;SDS011;55778;54.346;10.210;2023-05-07T11:54:24;3.78;;;2.35;;
68792;SDS011;55778;54.346;10.210;2023-05-07T11:56:51;3.05;;;1.90;;
68792;SDS011;55778;54.346;10.210;2023-05-07T11:59:17;2.25;;;1.70;;
68792;SDS011;55778;54.346;10.210;2023-05-07T12:01:45;3.67;;;2.22;;
68792;SDS011;55778;54.346;10.210;2023-05-07T12:04:11;2.80;;;2.10;;
68792;SDS011;55778;54.346;10.210;2023-05-07T12:06:36;4.10;;;2.55;;
68792;SDS011;55778;54.346;10.210;2023-05-07T12:09:02;3.40;;;2.50;;
68792;SDS011;55778;54.346;10.210;2023-05-07T12:11:29;4.47;;;2.38;;
68792;SDS011;55778;54.346;10.210;2023-05-07T12:13:54;4.13;;;2.10;;
68792;SDS011;55778;54.346;10.210;2023-05-07T12:16:20;3.63;;;2.20;;
68792;SDS011;55778;54.346;10.210;2023-05-07T12:18:46;4.30;;;2.40;;
68792;SDS011;55778;54.346;10.210;2023-05-07T12:21:12;2.60;;;1.90;;
68792;SDS011;55778;54.346;10.210;2023-05-07T12:23:38;2.28;;;1.80;;
68792;SDS011;55778;54.346;10.210;2023-05-07T12:26:04;2.75;;;2.05;;
68792;SDS011;55778;54.346;10.210;2023-05-07T12:28:29;2.80;;;1.80;;
68792;SDS011;55778;54.346;10.210;2023-05-07T12:30:56;2.45;;;1.75;;
68792;SDS011;55778;54.346;10.210;2023-05-07T12:33:25;4.00;;;2.35;;
68792;SDS011;55778;54.346;10.210;2023-05-07T12:35:53;2.72;;;1.95;;
68792;SDS011;55778;54.346;10.210;2023-05-07T12:38:20;3.78;;;2.42;;
68792;SDS011;55778;54.346;10.210;2023-05-07T12:40:47;3.05;;;1.98;;
68792;SDS011;55778;54.346;10.210;2023-05-07T12:43:25;2.45;;;1.80;;
68792;SDS011;55778;54.346;10.210;2023-05-07T12:46:11;2.92;;;2.25;;
68792;SDS011;55778;54.346;10.210;2023-05-07T12:48:43;3.92;;;2.33;;
68792;SDS011;55778;54.346;10.210;2023-05-07T12:51:10;4.75;;;1.90;;
68792;SDS011;55778;54.346;10.210;2023-05-07T12:53:41;3.40;;;2.10;;
68792;SDS011;55778;54.346;10.210;2023-05-07T12:58:34;5.53;;;2.28;;
68792;SDS011;55778;54.346;10.210;2023-05-07T13:01:03;3.78;;;2.63;;
68792;SDS011;55778;54.346;10.210;2023-05-07T13:03:34;3.95;;;2.30;;
68792;SDS011;55778;54.346;10.210;2023-05-07T13:06:05;3.17;;;2.45;;
68792;SDS011;55778;54.346;10.210;2023-05-07T13:08:33;4.65;;;2.47;;
68792;SDS011;55778;54.346;10.210;2023-05-07T13:11:01;4.45;;;2.33;;
68792;SDS011;55778;54.346;10.210;2023-05-07T13:13:29;5.20;;;2.65;;
68792;SDS011;55778;54.346;10.210;2023-05-07T13:15:55;3.97;;;2.17;;
68792;SDS011;55778;54.346;10.210;2023-05-07T13:18:21;3.03;;;2.05;;
68792;SDS011;55778;54.346;10.210;2023-05-07T13:20:46;3.92;;;2.13;;
68792;SDS011;55778;54.346;10.210;2023-05-07T13:23:11;3.30;;;2.05;;
68792;SDS011;55778;54.346;10.210;2023-05-07T13:25:37;3.17;;;2.10;;
68792;SDS011;55778;54.346;10.210;2023-05-07T13:28:02;4.18;;;2.30;;
68792;SDS011;55778;54.346;10.210;2023-05-07T13:30:29;4.35;;;2.28;;
68792;SDS011;55778;54.346;10.210;2023-05-07T13:32:55;3.03;;;1.80;;
68792;SDS011;55778;54.346;10.210;2023-05-07T13:35:21;3.10;;;2.10;;
68792;SDS011;55778;54.346;10.210;2023-05-07T13:37:46;2.78;;;2.00;;
68792;SDS011;55778;54.346;10.210;2023-05-07T13:40:13;4.45;;;2.42;;
68792;SDS011;55778;54.346;10.210;2023-05-07T13:42:38;3.63;;;2.15;;
68792;SDS011;55778;54.346;10.210;2023-05-07T13:45:04;4.20;;;2.22;;
68792;SDS011;55778;54.346;10.210;2023-05-07T13:47:30;3.72;;;2.03;;
68792;SDS011;55778;54.346;10.210;2023-05-07T13:49:55;3.75;;;2.20;;
68792;SDS011;55778;54.346;10.210;2023-05-07T13:52:21;2.35;;;1.98;;
68792;SDS011;55778;54.346;10.210;2023-05-07T13:54:46;2.40;;;1.90;;
68792;SDS011;55778;54.346;10.210;2023-05-07T13:57:11;3.17;;;1.98;;
68792;SDS011;55778;54.346;10.210;2023-05-07T13:59:37;3.47;;;2.08;;
68792;SDS011;55778;54.346;10.210;2023-05-07T14:02:02;2.88;;;2.20;;
68792;SDS011;55778;54.346;10.210;2023-05-07T14:04:28;4.22;;;2.25;;
68792;SDS011;55778;54.346;10.210;2023-05-07T14:06:53;2.78;;;2.00;;
68792;SDS011;55778;54.346;10.210;2023-05-07T14:09:18;5.40;;;2.00;;
68792;SDS011;55778;54.346;10.210;2023-05-07T14:11:44;3.45;;;1.90;;
68792;SDS011;55778;54.346;10.210;2023-05-07T14:14:09;2.85;;;1.90;;
68792;SDS011;55778;54.346;10.210;2023-05-07T14:16:36;3.35;;;1.90;;
68792;SDS011;55778;54.346;10.210;2023-05-07T14:19:02;2.83;;;1.60;;
68792;SDS011;55778;54.346;10.210;2023-05-07T14:21:27;3.00;;;2.05;;
68792;SDS011;55778;54.346;10.210;2023-05-07T14:23:52;3.05;;;2.03;;
68792;SDS011;55778;54.346;10.210;2023-05-07T14:26:18;4.00;;;2.33;;
68792;SDS011;55778;54.346;10.210;2023-05-07T14:28:44;3.30;;;2.25;;
68792;SDS011;55778;54.346;10.210;2023-05-07T14:31:11;4.13;;;2.10;;
68792;SDS011;55778;54.346;10.210;2023-05-07T14:33:37;3.97;;;2.20;;
68792;SDS011;55778;54.346;10.210;2023-05-07T14:36:02;4.35;;;2.20;;
68792;SDS011;55778;54.346;10.210;2023-05-07T14:38:28;3.55;;;2.33;;
68792;SDS011;55778;54.346;10.210;2023-05-07T14:40:54;3.58;;;2.00;;
68792;SDS011;55778;54.346;10.210;2023-05-07T14:43:21;3.00;;;2.08;;